Terminal Aerodrome Forecast
Issued by NWS Cleveland, OH

Home | Current Version | Previous Version | Text Only | Print | Product List | Glossary Off
Versions: 1 2 3 4 5 6 7 8 9 10 11 12 13 14 15 16 17

977
FTUS41 KCLE 132331
TAFTOL
TAF
KTOL 132331Z 1400/1424 VRB03KT P6SM SCT250
     FM140300 VRB03KT P6SM BKN060
     FM140600 VRB03KT P6SM SCT250
     FM140900 00000KT 5SM BR BKN120
     FM141400 18007KT P6SM SCT060
     FM142100 18010KT P6SM BKN060=

USA.gov is the U.S. government's official web portal to all federal, state and local government web resources and services.